createdAt,value
2023-01-05T00:00:56.604Z,50.33
2023-01-05T00:03:24.038Z,48.00
2023-01-05T00:05:51.579Z,50.33
2023-01-05T00:08:18.985Z,48.00
2023-01-05T00:11:04.001Z,50.00
2023-01-05T00:13:48.810Z,50.33
2023-01-05T00:16:35.551Z,47.00
2023-01-05T00:19:20.890Z,50.33
2023-01-05T00:22:06.148Z,47.33
2023-01-05T00:24:33.612Z,47.33
2023-01-05T00:27:01.040Z,47.67
2023-01-05T00:29:28.510Z,46.33
2023-01-05T00:31:57.272Z,47.00
2023-01-05T00:34:24.717Z,46.67
2023-01-05T00:36:52.133Z,46.67
2023-01-05T00:39:19.563Z,46.00
2023-01-05T00:41:46.973Z,47.33
2023-01-05T00:44:14.415Z,45.00
2023-01-05T00:46:41.842Z,46.67
2023-01-05T00:49:10.704Z,47.67
2023-01-05T00:51:38.127Z,44.67
2023-01-05T00:54:05.551Z,43.33
2023-01-05T00:56:33.566Z,44.33
2023-01-05T00:59:00.973Z,45.00
2023-01-05T01:01:28.684Z,44.33
2023-01-05T01:03:56.577Z,46.00
2023-01-05T01:06:25.289Z,45.33
2023-01-05T01:08:52.969Z,46.67
2023-01-05T01:11:20.394Z,43.00
2023-01-05T01:13:47.838Z,45.00
2023-01-05T01:16:15.869Z,43.25
2023-01-05T01:18:43.333Z,44.67
2023-01-05T01:21:10.745Z,45.33
2023-01-05T01:23:39.467Z,43.50
2023-01-05T01:26:07.019Z,41.50
2023-01-05T01:28:34.580Z,42.00
2023-01-05T01:31:02.129Z,45.33
2023-01-05T01:33:29.723Z,42.75
2023-01-05T01:35:57.167Z,43.50
2023-01-05T01:38:25.001Z,42.50
2023-01-05T01:40:53.824Z,42.00
2023-01-05T01:43:39.516Z,39.50
2023-01-05T01:46:07.440Z,43.00
2023-01-05T01:48:35.064Z,42.50
2023-01-05T01:51:07.982Z,42.00
2023-01-05T01:53:36.921Z,40.25
2023-01-05T01:56:06.701Z,40.50
2023-01-05T01:58:34.170Z,40.75
2023-01-05T02:01:01.785Z,40.50
2023-01-05T02:03:29.354Z,41.00
2023-01-05T02:05:56.814Z,41.00
2023-01-05T02:08:31.308Z,39.25
2023-01-05T02:11:10.381Z,39.75
2023-01-05T02:13:44.341Z,39.75
2023-01-05T02:16:17.446Z,40.25
2023-01-05T02:18:57.133Z,42.50
2023-01-05T02:21:28.536Z,41.25
2023-01-05T02:24:10.224Z,36.25
2023-01-05T02:27:05.104Z,38.25
2023-01-05T02:30:05.416Z,40.50
2023-01-05T02:32:35.653Z,39.50
2023-01-05T02:35:06.188Z,37.75
2023-01-05T02:37:34.594Z,35.50
2023-01-05T02:40:04.637Z,37.25
2023-01-05T02:42:36.726Z,38.25
2023-01-05T02:45:04.662Z,37.50
2023-01-05T02:47:38.831Z,39.75
2023-01-05T02:50:11.570Z,36.50
2023-01-05T02:52:40.388Z,39.25
2023-01-05T02:55:10.127Z,35.75
2023-01-05T02:57:49.731Z,39.00
2023-01-05T03:00:23.889Z,36.25
2023-01-05T03:02:54.705Z,36.00
2023-01-05T03:05:24.220Z,38.25
2023-01-05T03:07:51.977Z,36.50
2023-01-05T03:10:36.954Z,37.25
2023-01-05T03:13:24.621Z,35.50
2023-01-05T03:15:52.263Z,36.25
2023-01-05T03:18:21.381Z,36.25
2023-01-05T03:20:51.311Z,36.25
2023-01-05T03:23:37.491Z,36.50
2023-01-05T03:26:23.411Z,35.25
2023-01-05T03:29:10.300Z,37.00
2023-01-05T03:31:58.183Z,36.25
2023-01-05T03:34:49.842Z,36.25
2023-01-05T03:37:23.342Z,35.25
2023-01-05T03:39:51.440Z,30.50
2023-01-05T03:42:20.171Z,34.00
2023-01-05T03:44:47.621Z,35.75
2023-01-05T03:47:17.339Z,33.75
2023-01-05T03:49:47.073Z,35.00
2023-01-05T03:52:14.806Z,36.00
2023-01-05T03:54:43.304Z,30.25
2023-01-05T03:57:10.801Z,35.75
2023-01-05T03:59:39.188Z,34.50
2023-01-05T04:02:06.765Z,32.50
2023-01-05T04:04:34.462Z,33.00
2023-01-05T04:07:07.493Z,33.25
2023-01-05T04:09:35.755Z,35.25
2023-01-05T04:12:03.954Z,32.75
2023-01-05T04:14:34.945Z,32.25
2023-01-05T04:17:02.419Z,34.00
2023-01-05T04:19:29.825Z,33.00
2023-01-05T04:21:57.450Z,32.25
2023-01-05T04:24:27.089Z,33.50
2023-01-05T04:26:54.552Z,31.50
2023-01-05T04:29:26.011Z,33.00
2023-01-05T04:31:54.960Z,30.25
2023-01-05T04:34:22.565Z,31.75
2023-01-05T04:36:53.533Z,33.25
2023-01-05T04:39:22.606Z,14.75
2023-01-05T04:41:52.088Z,32.25
2023-01-05T04:44:21.143Z,30.25
2023-01-05T04:46:49.893Z,33.25
2023-01-05T04:49:18.125Z,31.50
2023-01-05T04:51:48.654Z,31.00
2023-01-05T04:54:17.148Z,33.00
2023-01-05T04:56:44.558Z,32.75
2023-01-05T04:59:15.375Z,29.50
2023-01-05T05:01:44.291Z,31.00
2023-01-05T05:04:13.639Z,31.50
2023-01-05T05:06:41.524Z,30.50
2023-01-05T05:09:09.014Z,29.75
2023-01-05T05:11:38.340Z,31.00
2023-01-05T05:14:05.782Z,28.50
2023-01-05T05:16:34.718Z,30.25
2023-01-05T05:19:02.300Z,29.75
2023-01-05T05:21:29.768Z,30.50
2023-01-05T05:23:57.910Z,30.25
2023-01-05T05:26:25.336Z,31.00
2023-01-05T05:28:52.856Z,30.25
2023-01-05T05:31:20.312Z,29.25
2023-01-05T05:33:49.051Z,23.25
2023-01-05T05:36:17.870Z,27.50
2023-01-05T05:38:45.287Z,31.75
2023-01-05T05:41:12.685Z,27.50
2023-01-05T05:43:40.329Z,28.00
2023-01-05T05:46:07.897Z,29.75
2023-01-05T05:48:35.404Z,25.50
2023-01-05T05:51:04.257Z,21.00
2023-01-05T05:53:31.690Z,29.50
2023-01-05T05:55:59.095Z,29.00
2023-01-05T05:58:26.501Z,30.25
2023-01-05T06:00:58.257Z,29.25
2023-01-05T06:03:25.697Z,26.00
2023-01-05T06:05:53.328Z,26.00
2023-01-05T06:08:23.928Z,26.25
2023-01-05T06:10:51.359Z,27.75
2023-01-05T06:13:18.934Z,24.00
2023-01-05T06:15:46.334Z,27.25
2023-01-05T06:18:13.805Z,26.50
2023-01-05T06:20:41.275Z,25.50
2023-01-05T06:23:08.682Z,25.50
2023-01-05T06:25:37.412Z,29.00
2023-01-05T06:28:04.941Z,24.50
2023-01-05T06:30:32.349Z,27.25
2023-01-05T06:32:59.755Z,23.50
2023-01-05T06:35:27.176Z,24.75
2023-01-05T06:37:55.135Z,23.50
2023-01-05T06:40:22.550Z,23.75
2023-01-05T06:42:51.233Z,24.00
2023-01-05T06:45:18.621Z,23.50
2023-01-05T06:47:46.017Z,23.25
2023-01-05T06:50:13.490Z,23.25
2023-01-05T06:52:40.979Z,24.75
2023-01-05T06:55:09.238Z,22.75
2023-01-05T06:57:36.940Z,24.00
2023-01-05T07:00:07.424Z,25.00
2023-01-05T07:02:34.835Z,21.25
2023-01-05T07:05:02.225Z,23.50
2023-01-05T07:07:29.621Z,22.75
2023-01-05T07:09:57.004Z,20.75
2023-01-05T07:12:24.425Z,19.75
2023-01-05T07:14:57.248Z,22.00
2023-01-05T07:17:26.595Z,21.75
2023-01-05T07:19:54.051Z,22.75
2023-01-05T07:22:21.766Z,23.00
2023-01-05T07:24:49.214Z,21.00
2023-01-05T07:27:16.619Z,20.00
2023-01-05T07:29:44.028Z,18.25
2023-01-05T07:32:11.465Z,17.50
2023-01-05T07:34:40.197Z,15.75
2023-01-05T07:37:07.602Z,19.00
2023-01-05T07:39:34.999Z,20.25
2023-01-05T07:42:02.403Z,20.50
2023-01-05T07:44:31.703Z,17.75
2023-01-05T07:46:59.406Z,17.50
2023-01-05T07:49:26.828Z,17.00
2023-01-05T07:51:55.536Z,16.75
2023-01-05T07:54:22.952Z,18.50
2023-01-05T07:56:50.356Z,18.75
2023-01-05T07:59:17.831Z,18.50
2023-01-05T08:01:45.384Z,17.25
2023-01-05T08:04:12.964Z,16.00
2023-01-05T08:06:40.415Z,16.75
2023-01-05T08:09:23.113Z,16.00
2023-01-05T08:11:50.583Z,15.50
2023-01-05T08:14:17.116Z,15.00
2023-01-05T08:16:44.623Z,13.00
2023-01-05T08:19:12.133Z,18.00
2023-01-05T08:21:39.564Z,17.00
2023-01-05T08:24:08.837Z,16.00
2023-01-05T08:26:36.303Z,16.00
2023-01-05T08:29:03.771Z,15.75
2023-01-05T08:31:33.898Z,16.00
2023-01-05T08:34:02.398Z,16.00
2023-01-05T08:36:31.193Z,14.75
2023-01-05T08:39:01.125Z,14.25
2023-01-05T08:41:31.386Z,13.75
2023-01-05T08:43:59.490Z,12.00
2023-01-05T08:46:27.971Z,13.50
2023-01-05T08:48:57.428Z,13.50
2023-01-05T08:51:25.049Z,13.00
2023-01-05T08:53:52.540Z,11.25
2023-01-05T08:56:20.159Z,11.25
2023-01-05T08:58:48.905Z,11.75
2023-01-05T09:01:17.103Z,13.00
2023-01-05T09:03:44.714Z,13.50
2023-01-05T09:06:12.867Z,12.75
2023-01-05T09:08:41.185Z,11.75
2023-01-05T09:11:09.058Z,12.50
2023-01-05T09:13:36.513Z,11.25
2023-01-05T09:16:09.927Z,11.50
2023-01-05T09:18:37.401Z,13.25
2023-01-05T09:21:06.015Z,11.00
2023-01-05T09:23:33.428Z,9.75
2023-01-05T09:26:00.847Z,12.25
2023-01-05T09:28:28.252Z,11.00
2023-01-05T09:30:55.705Z,12.00
2023-01-05T09:33:24.935Z,11.00
2023-01-05T09:35:55.951Z,12.50
2023-01-05T09:38:23.383Z,12.00
2023-01-05T09:40:51.816Z,12.00
2023-01-05T09:43:23.197Z,12.50
2023-01-05T09:45:50.925Z,11.50
2023-01-05T09:48:18.395Z,12.00
2023-01-05T09:50:47.628Z,10.00
2023-01-05T09:53:15.075Z,15.00
2023-01-05T09:55:42.571Z,12.50
2023-01-05T09:58:12.839Z,11.75
2023-01-05T10:00:41.832Z,12.75
2023-01-05T10:03:13.001Z,11.25
2023-01-05T10:05:47.611Z,15.00
2023-01-05T10:08:17.450Z,15.00
2023-01-05T10:10:46.434Z,13.75
2023-01-05T10:13:19.419Z,13.75
2023-01-05T10:15:49.350Z,15.50
2023-01-05T10:18:18.352Z,16.50
2023-01-05T10:20:51.542Z,16.00
2023-01-05T10:23:28.750Z,15.50
2023-01-05T10:25:58.728Z,15.00
2023-01-05T10:28:33.918Z,15.00
2023-01-05T10:31:02.004Z,15.75
2023-01-05T10:33:51.861Z,14.00
2023-01-05T10:37:08.764Z,14.00
2023-01-05T10:39:58.836Z,14.50
2023-01-05T10:42:40.832Z,17.50
2023-01-05T10:45:10.351Z,15.25
2023-01-05T10:47:38.280Z,14.50
2023-01-05T10:50:18.844Z,15.75
2023-01-05T10:52:47.559Z,13.75
2023-01-05T10:55:16.994Z,13.25
2023-01-05T10:57:44.394Z,13.00
2023-01-05T11:00:14.185Z,13.00
2023-01-05T11:02:42.848Z,13.50
2023-01-05T11:05:24.711Z,14.50
2023-01-05T11:07:54.470Z,12.75
2023-01-05T11:10:27.176Z,13.75
2023-01-05T11:12:56.672Z,11.50
2023-01-05T11:15:24.087Z,11.00
2023-01-05T11:17:51.499Z,12.00
2023-01-05T11:20:19.010Z,12.00
2023-01-05T11:22:48.330Z,12.00
2023-01-05T11:25:23.508Z,12.25
2023-01-05T11:28:11.362Z,12.50
2023-01-05T11:30:39.361Z,10.25
2023-01-05T11:33:17.235Z,10.75
2023-01-05T11:35:47.319Z,10.50
2023-01-05T11:38:21.393Z,9.25
2023-01-05T11:40:50.153Z,9.50
2023-01-05T11:43:17.572Z,9.00
2023-01-05T11:45:47.193Z,9.25
2023-01-05T11:48:16.504Z,6.25
2023-01-05T11:50:47.118Z,8.00
2023-01-05T11:53:24.661Z,8.00
2023-01-05T11:56:01.328Z,8.00
2023-01-05T11:58:32.276Z,8.50
2023-01-05T12:01:22.112Z,7.00
2023-01-05T12:03:59.214Z,8.00
2023-01-05T12:06:32.252Z,7.00
2023-01-05T12:09:02.015Z,6.00
2023-01-05T12:11:31.884Z,6.00
2023-01-05T12:14:08.227Z,7.75
2023-01-05T12:16:45.213Z,6.00
2023-01-05T12:19:42.321Z,7.75
2023-01-05T12:22:25.475Z,7.00
2023-01-05T12:25:01.881Z,5.50
2023-01-05T12:27:36.699Z,5.00
2023-01-05T12:34:01.756Z,5.25
2023-01-05T12:36:13.940Z,5.75
2023-01-05T12:38:48.299Z,6.00
2023-01-05T12:41:48.638Z,6.00
2023-01-05T12:44:25.960Z,5.25
2023-01-05T12:47:00.357Z,5.00
2023-01-05T12:49:29.270Z,5.00
2023-01-05T12:52:04.387Z,5.00
2023-01-05T12:54:39.352Z,5.75
2023-01-05T12:57:08.364Z,4.00
2023-01-05T12:59:40.546Z,3.00
2023-01-05T13:02:21.468Z,4.25
2023-01-05T13:04:55.970Z,4.00
2023-01-05T13:07:25.291Z,4.25
2023-01-05T13:10:02.308Z,4.00
2023-01-05T13:12:30.253Z,3.50
2023-01-05T13:15:06.007Z,4.00
2023-01-05T13:17:34.824Z,3.50
2023-01-05T13:20:05.314Z,2.75
2023-01-05T13:22:34.652Z,3.00
2023-01-05T13:25:04.353Z,3.00
2023-01-05T13:27:34.391Z,3.00
2023-01-05T13:30:03.113Z,3.00
2023-01-05T13:32:36.799Z,4.00
2023-01-05T13:35:31.169Z,3.00
2023-01-05T13:38:23.059Z,3.00
2023-01-05T13:41:00.875Z,2.75
2023-01-05T13:44:00.884Z,4.00
2023-01-05T13:46:35.834Z,2.33
2023-01-05T13:49:18.084Z,3.25
2023-01-05T13:51:51.424Z,3.00
2023-01-05T13:54:21.477Z,3.00
2023-01-05T13:56:49.059Z,2.00
2023-01-05T13:59:34.683Z,2.25
2023-01-05T14:02:04.472Z,3.00
2023-01-05T14:04:33.331Z,5.50
2023-01-05T14:07:02.348Z,6.25
2023-01-05T14:09:30.952Z,8.50
2023-01-05T14:12:35.753Z,9.00
2023-01-05T14:15:05.786Z,13.75
2023-01-05T14:17:54.327Z,19.25
2023-01-05T14:20:37.117Z,17.00
2023-01-05T14:23:06.141Z,23.75
2023-01-05T14:25:48.289Z,22.50
2023-01-05T14:28:17.920Z,25.00
2023-01-05T14:30:45.343Z,30.00
2023-01-05T14:33:14.023Z,34.00
2023-01-05T14:35:41.486Z,35.25
2023-01-05T14:38:17.412Z,40.75
2023-01-05T14:40:45.778Z,40.50
2023-01-05T14:43:25.972Z,40.50
2023-01-05T14:45:58.917Z,40.50
2023-01-05T14:48:30.919Z,44.25
2023-01-05T14:51:23.963Z,44.67
2023-01-05T14:53:52.182Z,45.67
2023-01-05T14:56:22.070Z,46.33
2023-01-05T14:58:56.413Z,46.33
2023-01-05T15:01:26.092Z,46.67
2023-01-05T15:03:58.276Z,45.67
2023-01-05T15:06:28.446Z,47.33
2023-01-05T15:09:09.701Z,48.00
2023-01-05T15:11:51.393Z,50.33
2023-01-05T15:14:32.711Z,50.33
2023-01-05T15:17:21.316Z,54.00
2023-01-05T15:19:57.509Z,51.67
2023-01-05T15:22:37.983Z,53.67
2023-01-05T15:25:25.671Z,55.33
2023-01-05T15:28:01.836Z,60.00
2023-01-05T15:31:03.770Z,56.00
2023-01-05T15:33:34.300Z,57.33
2023-01-05T15:36:05.685Z,55.33
2023-01-05T15:38:44.079Z,56.67
2023-01-05T15:41:12.619Z,55.67
2023-01-05T15:43:40.675Z,52.00
2023-01-05T15:46:08.187Z,52.00
2023-01-05T15:48:39.012Z,51.67
2023-01-05T15:51:07.927Z,52.33
2023-01-05T15:53:36.773Z,50.33
2023-01-05T15:56:04.474Z,52.67
2023-01-05T15:58:32.787Z,49.33
2023-01-05T16:01:01.471Z,52.00
2023-01-05T16:03:29.500Z,48.33
2023-01-05T16:05:57.369Z,50.67
2023-01-05T16:08:26.080Z,50.33
2023-01-05T16:10:55.938Z,46.67
2023-01-05T16:13:29.239Z,48.33
2023-01-05T16:15:57.822Z,47.33
2023-01-05T16:18:26.993Z,48.33
2023-01-05T16:20:54.646Z,50.00
2023-01-05T16:23:24.028Z,50.00
2023-01-05T16:25:57.732Z,48.33
2023-01-05T16:28:25.463Z,48.67
2023-01-05T16:30:53.546Z,46.67
2023-01-05T16:33:27.183Z,46.00
2023-01-05T16:36:13.032Z,46.33
2023-01-05T16:38:40.596Z,45.67
2023-01-05T16:41:11.446Z,45.33
2023-01-05T16:43:43.576Z,43.33
2023-01-05T16:46:31.057Z,44.33
2023-01-05T16:49:00.256Z,45.00
2023-01-05T16:51:38.717Z,45.67
2023-01-05T16:54:07.590Z,41.67
2023-01-05T16:56:51.190Z,43.00
2023-01-05T16:59:44.716Z,44.33
2023-01-05T17:02:29.883Z,43.50
2023-01-05T17:04:57.434Z,44.33
2023-01-05T17:07:24.855Z,43.33
2023-01-05T17:09:52.269Z,42.25
2023-01-05T17:12:20.986Z,44.00
2023-01-05T17:14:48.431Z,41.75
2023-01-05T17:17:15.894Z,43.25
2023-01-05T17:19:43.563Z,42.25
2023-01-05T17:22:12.717Z,42.00
2023-01-05T17:24:40.427Z,39.25
2023-01-05T17:27:07.843Z,42.75
2023-01-05T17:29:37.100Z,39.00
2023-01-05T17:32:04.544Z,41.50
2023-01-05T17:34:32.068Z,40.50
2023-01-05T17:37:00.529Z,40.50
2023-01-05T17:39:27.942Z,38.50
2023-01-05T17:42:16.231Z,39.75
2023-01-05T17:44:44.980Z,40.25
2023-01-05T17:47:12.382Z,39.00
2023-01-05T17:49:39.826Z,40.00
2023-01-05T17:52:07.240Z,37.00
2023-01-05T17:54:34.668Z,39.75
2023-01-05T17:57:03.928Z,38.25
2023-01-05T17:59:31.344Z,38.25
2023-01-05T18:02:00.188Z,38.25
2023-01-05T18:04:28.802Z,37.50
2023-01-05T18:06:56.305Z,38.00
2023-01-05T18:11:56.024Z,36.25
2023-01-05T18:14:23.530Z,33.50
2023-01-05T18:16:50.947Z,34.50
2023-01-05T18:19:19.913Z,37.25
2023-01-05T18:21:47.351Z,36.00
2023-01-05T18:24:14.751Z,35.00
2023-01-05T18:26:42.161Z,32.75
2023-01-05T18:29:09.587Z,33.50
2023-01-05T18:31:41.785Z,31.75
2023-01-05T18:34:10.916Z,33.50
2023-01-05T18:36:39.639Z,33.25
2023-01-05T18:39:07.238Z,32.50
2023-01-05T18:41:34.677Z,33.25
2023-01-05T18:44:02.096Z,31.00
2023-01-05T18:46:29.984Z,34.00
2023-01-05T18:48:57.476Z,32.25
2023-01-05T18:51:24.883Z,33.00
2023-01-05T18:53:53.573Z,32.25
2023-01-05T18:56:20.983Z,32.75
2023-01-05T18:58:48.390Z,32.75
2023-01-05T19:01:16.983Z,32.25
2023-01-05T19:03:44.462Z,29.25
2023-01-05T19:06:14.409Z,31.25
2023-01-05T19:08:43.113Z,32.50
2023-01-05T19:11:16.132Z,30.50
2023-01-05T19:13:45.036Z,31.50
2023-01-05T19:16:14.886Z,28.75
2023-01-05T19:18:42.341Z,29.50
2023-01-05T19:21:09.788Z,30.75
2023-01-05T19:23:37.224Z,29.00
2023-01-05T19:26:06.203Z,30.00
2023-01-05T19:28:36.870Z,28.00
2023-01-05T19:31:05.718Z,25.50
2023-01-05T19:33:34.102Z,27.75
2023-01-05T19:36:02.622Z,27.50
2023-01-05T19:38:30.833Z,29.50
2023-01-05T19:41:03.670Z,29.00
2023-01-05T19:43:31.175Z,26.50
2023-01-05T19:46:00.463Z,23.75
2023-01-05T19:48:27.929Z,28.00
2023-01-05T19:50:59.110Z,26.25
2023-01-05T19:53:26.688Z,26.00
2023-01-05T19:56:02.990Z,29.25
2023-01-05T19:58:30.817Z,29.25
2023-01-05T20:01:02.043Z,27.25
2023-01-05T20:03:29.472Z,25.00
2023-01-05T20:06:06.097Z,25.00
2023-01-05T20:08:33.534Z,24.75
2023-01-05T20:11:05.798Z,27.50
2023-01-05T20:13:33.236Z,26.25
2023-01-05T20:16:04.981Z,25.75
2023-01-05T20:18:32.423Z,27.25
2023-01-05T20:21:00.416Z,25.50
2023-01-05T20:23:32.669Z,25.75
2023-01-05T20:26:07.566Z,27.50
2023-01-05T20:28:34.982Z,28.00
2023-01-05T20:31:03.720Z,27.75
2023-01-05T20:33:31.164Z,25.25
2023-01-05T20:35:58.562Z,24.00
2023-01-05T20:38:25.969Z,28.00
2023-01-05T20:40:53.406Z,27.50
2023-01-05T20:43:20.812Z,26.25
2023-01-05T20:45:48.281Z,25.00
2023-01-05T20:48:16.991Z,26.00
2023-01-05T20:50:45.652Z,23.00
2023-01-05T20:53:13.090Z,24.00
2023-01-05T20:55:40.755Z,24.50
2023-01-05T20:58:08.153Z,23.50
2023-01-05T21:00:35.578Z,21.00
2023-01-05T21:03:24.207Z,23.25
2023-01-05T21:05:51.627Z,24.75
2023-01-05T21:08:19.036Z,24.50
2023-01-05T21:10:46.455Z,24.00
2023-01-05T21:13:31.687Z,22.25
2023-01-05T21:16:01.344Z,21.00
2023-01-05T21:18:30.162Z,21.25
2023-01-05T21:20:57.657Z,24.00
2023-01-05T21:23:25.206Z,23.25
2023-01-05T21:26:05.861Z,23.50
2023-01-05T21:28:35.130Z,22.75
2023-01-05T21:31:03.371Z,21.75
2023-01-05T21:33:32.179Z,20.25
2023-01-05T21:35:59.685Z,21.50
2023-01-05T21:38:27.154Z,24.25
2023-01-05T21:41:14.557Z,23.00
2023-01-05T21:43:43.019Z,20.00
2023-01-05T21:46:12.535Z,21.00
2023-01-05T21:48:41.311Z,17.75
2023-01-05T21:51:27.851Z,20.00
2023-01-05T21:54:24.548Z,20.75
2023-01-05T21:56:51.987Z,21.25
2023-01-05T21:59:19.440Z,20.00
2023-01-05T22:01:47.221Z,19.00
2023-01-05T22:04:15.971Z,22.00
2023-01-05T22:06:43.399Z,19.75
2023-01-05T22:09:10.807Z,19.00
2023-01-05T22:11:38.231Z,21.50
2023-01-05T22:14:05.633Z,19.25
2023-01-05T22:16:33.122Z,19.75
2023-01-05T22:19:00.575Z,18.75
2023-01-05T22:21:30.455Z,19.00
2023-01-05T22:23:57.877Z,21.00
2023-01-05T22:26:25.282Z,16.75
2023-01-05T22:28:52.709Z,17.50
2023-01-05T22:31:21.526Z,17.50
2023-01-05T22:33:49.970Z,19.50
2023-01-05T22:36:18.399Z,16.50
2023-01-05T22:38:47.961Z,20.25
2023-01-05T22:41:19.115Z,20.00
2023-01-05T22:43:46.574Z,18.00
2023-01-05T22:46:14.745Z,17.25
2023-01-05T22:48:43.201Z,16.25
2023-01-05T22:51:11.851Z,19.00
2023-01-05T22:53:39.270Z,19.50
2023-01-05T22:56:09.143Z,19.50
2023-01-05T22:58:36.837Z,19.50
2023-01-05T23:01:08.625Z,17.75
2023-01-05T23:03:36.176Z,18.00
2023-01-05T23:06:03.657Z,16.25
2023-01-05T23:08:31.062Z,17.75
2023-01-05T23:11:01.511Z,17.50
2023-01-05T23:13:30.252Z,17.00
2023-01-05T23:15:57.716Z,15.75
2023-01-05T23:18:25.180Z,13.25
2023-01-05T23:20:53.492Z,13.75
2023-01-05T23:23:21.390Z,16.25
2023-01-05T23:25:48.931Z,16.25
2023-01-05T23:28:17.963Z,15.75
2023-01-05T23:30:47.960Z,17.00
2023-01-05T23:33:15.602Z,16.50
2023-01-05T23:35:43.283Z,14.00
2023-01-05T23:38:10.780Z,16.00
2023-01-05T23:40:41.491Z,15.00
2023-01-05T23:43:08.923Z,15.00
2023-01-05T23:45:36.380Z,19.00
2023-01-05T23:48:05.570Z,16.00
2023-01-05T23:50:33.656Z,15.75
2023-01-05T23:53:01.181Z,15.50
2023-01-05T23:55:28.909Z,16.00
2023-01-05T23:57:56.350Z,14.25
